sensor_id;sensor_type;location;lat;lon;timestamp;temperature;humidity
12907;DHT22;6521;50.498;8.474;2023-04-06T00:00:40;1.45;67.95
12907;DHT22;6521;50.498;8.474;2023-04-06T00:03:11;1.41;67.55
12907;DHT22;6521;50.498;8.474;2023-04-06T00:05:42;1.35;68.26
12907;DHT22;6521;50.498;8.474;2023-04-06T00:08:12;1.34;68.51
12907;DHT22;6521;50.498;8.474;2023-04-06T00:10:43;1.32;68.15
12907;DHT22;6521;50.498;8.474;2023-04-06T00:13:14;1.34;68.04
12907;DHT22;6521;50.498;8.474;2023-04-06T00:15:45;1.40;68.62
12907;DHT22;6521;50.498;8.474;2023-04-06T00:18:15;1.40;68.36
12907;DHT22;6521;50.498;8.474;2023-04-06T00:20:47;1.37;68.36
12907;DHT22;6521;50.498;8.474;2023-04-06T00:23:18;1.32;68.58
12907;DHT22;6521;50.498;8.474;2023-04-06T00:25:49;1.34;68.09
12907;DHT22;6521;50.498;8.474;2023-04-06T00:28:19;1.35;67.96
12907;DHT22;6521;50.498;8.474;2023-04-06T00:30:55;1.30;67.62
12907;DHT22;6521;50.498;8.474;2023-04-06T00:33:26;1.30;67.63
12907;DHT22;6521;50.498;8.474;2023-04-06T00:35:57;1.27;67.21
12907;DHT22;6521;50.498;8.474;2023-04-06T00:38:28;1.26;67.37
12907;DHT22;6521;50.498;8.474;2023-04-06T00:40:59;1.20;67.58
12907;DHT22;6521;50.498;8.474;2023-04-06T00:43:31;1.17;67.84
12907;DHT22;6521;50.498;8.474;2023-04-06T00:46:02;1.16;67.77
12907;DHT22;6521;50.498;8.474;2023-04-06T00:48:33;1.16;68.35
12907;DHT22;6521;50.498;8.474;2023-04-06T00:51:04;1.16;68.46
12907;DHT22;6521;50.498;8.474;2023-04-06T00:53:35;1.14;68.93
12907;DHT22;6521;50.498;8.474;2023-04-06T00:56:06;1.14;68.70
12907;DHT22;6521;50.498;8.474;2023-04-06T00:58:50;1.07;69.34
12907;DHT22;6521;50.498;8.474;2023-04-06T01:01:21;1.01;69.11
12907;DHT22;6521;50.498;8.474;2023-04-06T01:03:55;1.01;69.17
12907;DHT22;6521;50.498;8.474;2023-04-06T01:06:27;0.93;69.61
12907;DHT22;6521;50.498;8.474;2023-04-06T01:09:03;0.90;69.90
12907;DHT22;6521;50.498;8.474;2023-04-06T01:11:35;0.91;69.38
12907;DHT22;6521;50.498;8.474;2023-04-06T01:14:08;0.90;69.31
12907;DHT22;6521;50.498;8.474;2023-04-06T01:16:57;0.91;69.48
12907;DHT22;6521;50.498;8.474;2023-04-06T01:19:32;0.90;69.36
12907;DHT22;6521;50.498;8.474;2023-04-06T01:22:03;0.91;69.41
12907;DHT22;6521;50.498;8.474;2023-04-06T01:24:34;0.91;69.41
12907;DHT22;6521;50.498;8.474;2023-04-06T01:27:15;0.94;69.67
12907;DHT22;6521;50.498;8.474;2023-04-06T01:30:05;0.82;69.82
12907;DHT22;6521;50.498;8.474;2023-04-06T01:32:49;0.77;69.86
12907;DHT22;6521;50.498;8.474;2023-04-06T01:35:26;0.80;69.71
12907;DHT22;6521;50.498;8.474;2023-04-06T01:38:16;0.75;70.34
12907;DHT22;6521;50.498;8.474;2023-04-06T01:40:48;0.70;70.73
12907;DHT22;6521;50.498;8.474;2023-04-06T01:43:21;0.66;70.74
12907;DHT22;6521;50.498;8.474;2023-04-06T01:46:04;0.63;70.28
12907;DHT22;6521;50.498;8.474;2023-04-06T01:48:39;0.58;70.37
12907;DHT22;6521;50.498;8.474;2023-04-06T01:51:20;0.55;70.02
12907;DHT22;6521;50.498;8.474;2023-04-06T01:54:02;0.53;70.49
12907;DHT22;6521;50.498;8.474;2023-04-06T01:56:54;0.55;70.55
12907;DHT22;6521;50.498;8.474;2023-04-06T01:59:38;0.52;70.40
12907;DHT22;6521;50.498;8.474;2023-04-06T02:02:15;0.49;70.75
12907;DHT22;6521;50.498;8.474;2023-04-06T02:04:54;0.49;70.74
12907;DHT22;6521;50.498;8.474;2023-04-06T02:07:25;0.46;70.99
12907;DHT22;6521;50.498;8.474;2023-04-06T02:09:57;0.46;71.31
12907;DHT22;6521;50.498;8.474;2023-04-06T02:12:36;0.49;71.36
12907;DHT22;6521;50.498;8.474;2023-04-06T02:15:08;0.42;71.66
12907;DHT22;6521;50.498;8.474;2023-04-06T02:17:40;0.37;71.65
12907;DHT22;6521;50.498;8.474;2023-04-06T02:20:11;0.25;72.11
12907;DHT22;6521;50.498;8.474;2023-04-06T02:22:42;0.26;71.94
12907;DHT22;6521;50.498;8.474;2023-04-06T02:25:13;0.29;71.89
12907;DHT22;6521;50.498;8.474;2023-04-06T02:27:44;0.28;72.16
12907;DHT22;6521;50.498;8.474;2023-04-06T02:30:14;0.24;72.25
12907;DHT22;6521;50.498;8.474;2023-04-06T02:32:45;0.19;72.34
12907;DHT22;6521;50.498;8.474;2023-04-06T02:35:16;0.24;72.34
12907;DHT22;6521;50.498;8.474;2023-04-06T02:37:48;0.18;72.26
12907;DHT22;6521;50.498;8.474;2023-04-06T02:40:19;0.15;72.33
12907;DHT22;6521;50.498;8.474;2023-04-06T02:42:50;0.14;72.79
12907;DHT22;6521;50.498;8.474;2023-04-06T02:45:26;0.12;72.89
12907;DHT22;6521;50.498;8.474;2023-04-06T02:47:57;0.15;72.73
12907;DHT22;6521;50.498;8.474;2023-04-06T02:50:29;0.17;72.96
12907;DHT22;6521;50.498;8.474;2023-04-06T02:53:04;0.18;73.02
12907;DHT22;6521;50.498;8.474;2023-04-06T02:55:35;0.21;73.12
12907;DHT22;6521;50.498;8.474;2023-04-06T02:58:06;0.18;73.08
12907;DHT22;6521;50.498;8.474;2023-04-06T03:00:47;0.18;73.31
12907;DHT22;6521;50.498;8.474;2023-04-06T03:03:17;0.21;73.15
12907;DHT22;6521;50.498;8.474;2023-04-06T03:05:49;0.19;73.15
12907;DHT22;6521;50.498;8.474;2023-04-06T03:08:24;0.15;73.50
12907;DHT22;6521;50.498;8.474;2023-04-06T03:10:55;0.15;73.33
12907;DHT22;6521;50.498;8.474;2023-04-06T03:13:32;0.07;73.59
12907;DHT22;6521;50.498;8.474;2023-04-06T03:16:04;0.08;73.45
12907;DHT22;6521;50.498;8.474;2023-04-06T03:18:35;0.08;73.46
12907;DHT22;6521;50.498;8.474;2023-04-06T03:21:06;0.07;73.48
12907;DHT22;6521;50.498;8.474;2023-04-06T03:23:47;0.07;73.47
12907;DHT22;6521;50.498;8.474;2023-04-06T03:26:21;0.00;73.32
12907;DHT22;6521;50.498;8.474;2023-04-06T03:28:53;-0.06;73.46
12907;DHT22;6521;50.498;8.474;2023-04-06T03:31:28;-0.10;73.69
12907;DHT22;6521;50.498;8.474;2023-04-06T03:34:03;-0.26;74.08
12907;DHT22;6521;50.498;8.474;2023-04-06T03:36:37;-0.36;74.33
12907;DHT22;6521;50.498;8.474;2023-04-06T03:39:08;-0.33;74.25
12907;DHT22;6521;50.498;8.474;2023-04-06T03:41:42;-0.41;74.41
12907;DHT22;6521;50.498;8.474;2023-04-06T03:44:35;-0.41;74.76
12907;DHT22;6521;50.498;8.474;2023-04-06T03:47:05;-0.47;74.41
12907;DHT22;6521;50.498;8.474;2023-04-06T03:49:36;-0.50;74.38
12907;DHT22;6521;50.498;8.474;2023-04-06T03:52:09;-0.57;74.73
12907;DHT22;6521;50.498;8.474;2023-04-06T03:54:40;-0.56;75.06
12907;DHT22;6521;50.498;8.474;2023-04-06T03:57:11;-0.50;75.79
12907;DHT22;6521;50.498;8.474;2023-04-06T03:59:42;-0.54;75.06
12907;DHT22;6521;50.498;8.474;2023-04-06T04:02:12;-0.65;75.58
12907;DHT22;6521;50.498;8.474;2023-04-06T04:04:43;-0.65;75.68
12907;DHT22;6521;50.498;8.474;2023-04-06T04:07:14;-0.67;75.99
12907;DHT22;6521;50.498;8.474;2023-04-06T04:09:44;-0.64;76.05
12907;DHT22;6521;50.498;8.474;2023-04-06T04:12:15;-0.64;76.11
12907;DHT22;6521;50.498;8.474;2023-04-06T04:14:47;-0.61;75.84
12907;DHT22;6521;50.498;8.474;2023-04-06T04:17:17;-0.62;75.61
12907;DHT22;6521;50.498;8.474;2023-04-06T04:19:49;-0.68;76.01
12907;DHT22;6521;50.498;8.474;2023-04-06T04:22:20;-0.72;76.08
12907;DHT22;6521;50.498;8.474;2023-04-06T04:24:51;-0.69;75.93
12907;DHT22;6521;50.498;8.474;2023-04-06T04:27:22;-0.75;76.22
12907;DHT22;6521;50.498;8.474;2023-04-06T04:29:54;-0.78;76.43
12907;DHT22;6521;50.498;8.474;2023-04-06T04:32:26;-0.78;76.22
12907;DHT22;6521;50.498;8.474;2023-04-06T04:34:58;-0.84;76.39
12907;DHT22;6521;50.498;8.474;2023-04-06T04:37:40;-0.88;76.68
12907;DHT22;6521;50.498;8.474;2023-04-06T04:40:12;-0.88;76.74
12907;DHT22;6521;50.498;8.474;2023-04-06T04:42:52;-0.91;77.12
12907;DHT22;6521;50.498;8.474;2023-04-06T04:45:30;-0.91;77.15
12907;DHT22;6521;50.498;8.474;2023-04-06T04:48:04;-0.88;77.13
12907;DHT22;6521;50.498;8.474;2023-04-06T04:50:43;-0.84;77.36
12907;DHT22;6521;50.498;8.474;2023-04-06T04:53:14;-0.85;77.48
12907;DHT22;6521;50.498;8.474;2023-04-06T04:55:46;-0.81;77.16
12907;DHT22;6521;50.498;8.474;2023-04-06T04:58:18;-0.88;77.29
12907;DHT22;6521;50.498;8.474;2023-04-06T05:01:08;-0.88;77.51
12907;DHT22;6521;50.498;8.474;2023-04-06T05:03:39;-0.95;77.79
12907;DHT22;6521;50.498;8.474;2023-04-06T05:06:12;-0.93;77.49
12907;DHT22;6521;50.498;8.474;2023-04-06T05:08:44;-0.91;77.28
12907;DHT22;6521;50.498;8.474;2023-04-06T05:11:15;-0.98;77.60
12907;DHT22;6521;50.498;8.474;2023-04-06T05:13:50;-1.00;77.77
12907;DHT22;6521;50.498;8.474;2023-04-06T05:16:25;-0.95;77.84
12907;DHT22;6521;50.498;8.474;2023-04-06T05:18:56;-0.89;77.68
12907;DHT22;6521;50.498;8.474;2023-04-06T05:21:30;-0.91;78.06
12907;DHT22;6521;50.498;8.474;2023-04-06T05:24:07;-0.85;77.65
12907;DHT22;6521;50.498;8.474;2023-04-06T05:26:39;-0.84;77.85
12907;DHT22;6521;50.498;8.474;2023-04-06T05:29:16;-0.78;78.04
12907;DHT22;6521;50.498;8.474;2023-04-06T05:31:47;-0.74;78.01
12907;DHT22;6521;50.498;8.474;2023-04-06T05:34:18;-0.67;78.30
12907;DHT22;6521;50.498;8.474;2023-04-06T05:36:50;-0.64;78.27
12907;DHT22;6521;50.498;8.474;2023-04-06T05:39:24;-0.57;78.06
12907;DHT22;6521;50.498;8.474;2023-04-06T05:41:57;-0.56;78.24
12907;DHT22;6521;50.498;8.474;2023-04-06T05:44:37;-0.50;78.25
12907;DHT22;6521;50.498;8.474;2023-04-06T05:47:16;-0.42;78.23
12907;DHT22;6521;50.498;8.474;2023-04-06T05:49:49;-0.44;78.16
12907;DHT22;6521;50.498;8.474;2023-04-06T05:52:27;-0.37;78.13
12907;DHT22;6521;50.498;8.474;2023-04-06T05:54:58;-0.38;78.11
12907;DHT22;6521;50.498;8.474;2023-04-06T05:57:30;-0.33;78.05
12907;DHT22;6521;50.498;8.474;2023-04-06T06:00:01;-0.28;78.04
12907;DHT22;6521;50.498;8.474;2023-04-06T06:02:43;-0.21;77.99
12907;DHT22;6521;50.498;8.474;2023-04-06T06:05:19;-0.19;78.02
12907;DHT22;6521;50.498;8.474;2023-04-06T06:07:51;-0.17;77.64
12907;DHT22;6521;50.498;8.474;2023-04-06T06:10:22;-0.07;77.68
12907;DHT22;6521;50.498;8.474;2023-04-06T06:12:54;-0.05;77.55
12907;DHT22;6521;50.498;8.474;2023-04-06T06:15:26;0.00;77.43
12907;DHT22;6521;50.498;8.474;2023-04-06T06:17:56;0.04;77.31
12907;DHT22;6521;50.498;8.474;2023-04-06T06:20:29;0.10;77.40
12907;DHT22;6521;50.498;8.474;2023-04-06T06:23:03;0.15;77.18
12907;DHT22;6521;50.498;8.474;2023-04-06T06:25:34;0.22;77.00
12907;DHT22;6521;50.498;8.474;2023-04-06T06:28:07;0.24;76.97
12907;DHT22;6521;50.498;8.474;2023-04-06T06:30:38;0.29;76.88
12907;DHT22;6521;50.498;8.474;2023-04-06T06:33:09;0.37;76.97
12907;DHT22;6521;50.498;8.474;2023-04-06T06:35:40;0.42;77.07
12907;DHT22;6521;50.498;8.474;2023-04-06T06:38:11;0.48;76.98
12907;DHT22;6521;50.498;8.474;2023-04-06T06:40:41;0.53;77.11
12907;DHT22;6521;50.498;8.474;2023-04-06T06:43:12;0.59;77.18
12907;DHT22;6521;50.498;8.474;2023-04-06T06:46:05;0.66;77.29
12907;DHT22;6521;50.498;8.474;2023-04-06T06:48:36;0.72;77.34
12907;DHT22;6521;50.498;8.474;2023-04-06T06:51:08;0.77;77.36
12907;DHT22;6521;50.498;8.474;2023-04-06T06:53:40;0.82;77.28
12907;DHT22;6521;50.498;8.474;2023-04-06T06:56:10;0.84;77.36
12907;DHT22;6521;50.498;8.474;2023-04-06T06:58:42;0.90;77.36
12907;DHT22;6521;50.498;8.474;2023-04-06T07:01:13;0.96;77.25
12907;DHT22;6521;50.498;8.474;2023-04-06T07:03:44;0.99;77.27
12907;DHT22;6521;50.498;8.474;2023-04-06T07:06:15;1.08;77.09
12907;DHT22;6521;50.498;8.474;2023-04-06T07:08:46;1.16;77.08
12907;DHT22;6521;50.498;8.474;2023-04-06T07:11:16;1.21;76.92
12907;DHT22;6521;50.498;8.474;2023-04-06T07:13:47;1.30;77.02
12907;DHT22;6521;50.498;8.474;2023-04-06T07:16:18;1.34;77.13
12907;DHT22;6521;50.498;8.474;2023-04-06T07:18:49;1.40;77.25
12907;DHT22;6521;50.498;8.474;2023-04-06T07:21:20;1.47;77.21
12907;DHT22;6521;50.498;8.474;2023-04-06T07:23:51;1.59;77.16
12907;DHT22;6521;50.498;8.474;2023-04-06T07:26:22;1.65;76.66
12907;DHT22;6521;50.498;8.474;2023-04-06T07:28:53;1.68;76.72
12907;DHT22;6521;50.498;8.474;2023-04-06T07:31:25;1.78;76.80
12907;DHT22;6521;50.498;8.474;2023-04-06T07:33:57;1.89;76.95
12907;DHT22;6521;50.498;8.474;2023-04-06T07:36:28;2.00;76.92
12907;DHT22;6521;50.498;8.474;2023-04-06T07:38:58;2.07;76.42
12907;DHT22;6521;50.498;8.474;2023-04-06T07:41:29;2.16;76.20
12907;DHT22;6521;50.498;8.474;2023-04-06T07:44:00;2.27;76.39
12907;DHT22;6521;50.498;8.474;2023-04-06T07:46:32;2.40;76.17
12907;DHT22;6521;50.498;8.474;2023-04-06T07:49:03;2.51;75.71
12907;DHT22;6521;50.498;8.474;2023-04-06T07:51:37;2.61;75.59
12907;DHT22;6521;50.498;8.474;2023-04-06T07:54:08;2.71;74.87
12907;DHT22;6521;50.498;8.474;2023-04-06T07:56:39;2.84;74.62
12907;DHT22;6521;50.498;8.474;2023-04-06T07:59:10;2.95;74.46
12907;DHT22;6521;50.498;8.474;2023-04-06T08:01:41;3.08;73.72
12907;DHT22;6521;50.498;8.474;2023-04-06T08:04:12;3.24;73.54
12907;DHT22;6521;50.498;8.474;2023-04-06T08:06:43;3.33;73.23
12907;DHT22;6521;50.498;8.474;2023-04-06T08:09:13;3.43;73.33
12907;DHT22;6521;50.498;8.474;2023-04-06T08:11:44;3.61;73.43
12907;DHT22;6521;50.498;8.474;2023-04-06T08:14:16;3.78;73.03
12907;DHT22;6521;50.498;8.474;2023-04-06T08:16:47;3.95;71.79
12907;DHT22;6521;50.498;8.474;2023-04-06T08:19:17;4.13;71.71
12907;DHT22;6521;50.498;8.474;2023-04-06T08:21:49;4.33;72.07
12907;DHT22;6521;50.498;8.474;2023-04-06T08:24:20;4.54;71.44
12907;DHT22;6521;50.498;8.474;2023-04-06T08:26:51;4.68;69.65
12907;DHT22;6521;50.498;8.474;2023-04-06T08:29:22;4.92;68.73
12907;DHT22;6521;50.498;8.474;2023-04-06T08:31:54;5.15;68.78
12907;DHT22;6521;50.498;8.474;2023-04-06T08:34:24;5.32;68.97
12907;DHT22;6521;50.498;8.474;2023-04-06T08:36:55;5.59;66.94
12907;DHT22;6521;50.498;8.474;2023-04-06T08:39:26;5.76;65.86
12907;DHT22;6521;50.498;8.474;2023-04-06T08:41:58;6.03;66.18
12907;DHT22;6521;50.498;8.474;2023-04-06T08:44:31;6.28;65.94
12907;DHT22;6521;50.498;8.474;2023-04-06T08:47:04;6.55;64.60
12907;DHT22;6521;50.498;8.474;2023-04-06T08:49:37;6.82;64.18
12907;DHT22;6521;50.498;8.474;2023-04-06T08:52:08;7.00;63.34
12907;DHT22;6521;50.498;8.474;2023-04-06T08:54:40;7.21;61.18
12907;DHT22;6521;50.498;8.474;2023-04-06T08:57:12;7.45;61.74
12907;DHT22;6521;50.498;8.474;2023-04-06T08:59:43;7.69;61.60
12907;DHT22;6521;50.498;8.474;2023-04-06T09:02:17;7.92;60.71
12907;DHT22;6521;50.498;8.474;2023-04-06T09:04:49;8.20;59.08
12907;DHT22;6521;50.498;8.474;2023-04-06T09:07:22;8.50;59.61
12907;DHT22;6521;50.498;8.474;2023-04-06T09:09:54;8.79;57.67
12907;DHT22;6521;50.498;8.474;2023-04-06T09:12:29;9.12;58.43
12907;DHT22;6521;50.498;8.474;2023-04-06T09:15:01;9.48;57.12
12907;DHT22;6521;50.498;8.474;2023-04-06T09:17:32;9.78;54.93
12907;DHT22;6521;50.498;8.474;2023-04-06T09:20:04;10.12;54.41
12907;DHT22;6521;50.498;8.474;2023-04-06T09:22:36;10.52;52.97
12907;DHT22;6521;50.498;8.474;2023-04-06T09:25:08;10.96;50.51
12907;DHT22;6521;50.498;8.474;2023-04-06T09:27:40;11.29;50.69
12907;DHT22;6521;50.498;8.474;2023-04-06T09:30:12;11.63;48.49
12907;DHT22;6521;50.498;8.474;2023-04-06T09:32:52;12.00;47.95
12907;DHT22;6521;50.498;8.474;2023-04-06T09:35:24;12.35;44.88
12907;DHT22;6521;50.498;8.474;2023-04-06T09:37:57;12.56;45.70
12907;DHT22;6521;50.498;8.474;2023-04-06T09:40:28;12.96;43.88
12907;DHT22;6521;50.498;8.474;2023-04-06T09:42:59;13.20;44.45
12907;DHT22;6521;50.498;8.474;2023-04-06T09:45:32;13.75;43.84
12907;DHT22;6521;50.498;8.474;2023-04-06T09:48:03;13.99;42.48
12907;DHT22;6521;50.498;8.474;2023-04-06T09:50:34;14.40;41.89
12907;DHT22;6521;50.498;8.474;2023-04-06T09:53:06;14.60;39.11
12907;DHT22;6521;50.498;8.474;2023-04-06T09:55:42;14.64;39.63
12907;DHT22;6521;50.498;8.474;2023-04-06T09:58:16;14.70;38.52
12907;DHT22;6521;50.498;8.474;2023-04-06T10:01:13;14.49;37.49
12907;DHT22;6521;50.498;8.474;2023-04-06T10:03:56;14.08;39.69
12907;DHT22;6521;50.498;8.474;2023-04-06T10:06:34;13.89;36.69
12907;DHT22;6521;50.498;8.474;2023-04-06T10:09:07;13.12;38.15
12907;DHT22;6521;50.498;8.474;2023-04-06T10:11:38;12.95;40.61
12907;DHT22;6521;50.498;8.474;2023-04-06T10:14:09;12.73;41.07
12907;DHT22;6521;50.498;8.474;2023-04-06T10:16:42;13.13;40.75
12907;DHT22;6521;50.498;8.474;2023-04-06T10:19:18;13.85;41.34
12907;DHT22;6521;50.498;8.474;2023-04-06T10:21:53;14.50;40.41
12907;DHT22;6521;50.498;8.474;2023-04-06T10:24:26;15.09;40.06
12907;DHT22;6521;50.498;8.474;2023-04-06T10:27:04;15.93;35.58
12907;DHT22;6521;50.498;8.474;2023-04-06T10:29:47;16.34;35.54
12907;DHT22;6521;50.498;8.474;2023-04-06T10:32:32;15.91;32.04
12907;DHT22;6521;50.498;8.474;2023-04-06T10:35:11;15.52;32.83
12907;DHT22;6521;50.498;8.474;2023-04-06T10:40:23;15.15;33.06
12907;DHT22;6521;50.498;8.474;2023-04-06T10:42:55;14.47;32.56
12907;DHT22;6521;50.498;8.474;2023-04-06T10:45:31;13.65;34.70
12907;DHT22;6521;50.498;8.474;2023-04-06T10:48:18;13.43;36.37
12907;DHT22;6521;50.498;8.474;2023-04-06T10:50:51;13.44;35.16
12907;DHT22;6521;50.498;8.474;2023-04-06T10:53:22;13.89;34.53
12907;DHT22;6521;50.498;8.474;2023-04-06T10:55:56;14.46;35.45
12907;DHT22;6521;50.498;8.474;2023-04-06T10:58:27;15.12;33.49
12907;DHT22;6521;50.498;8.474;2023-04-06T11:00:58;15.18;34.37
12907;DHT22;6521;50.498;8.474;2023-04-06T11:03:31;15.07;32.96
12907;DHT22;6521;50.498;8.474;2023-04-06T11:06:02;14.61;33.12
12907;DHT22;6521;50.498;8.474;2023-04-06T11:08:33;14.94;33.00
12907;DHT22;6521;50.498;8.474;2023-04-06T11:11:08;15.38;32.53
12907;DHT22;6521;50.498;8.474;2023-04-06T11:13:48;15.71;31.30
12907;DHT22;6521;50.498;8.474;2023-04-06T11:16:21;16.06;33.23
12907;DHT22;6521;50.498;8.474;2023-04-06T11:18:57;16.49;30.50
12907;DHT22;6521;50.498;8.474;2023-04-06T11:21:45;16.28;29.64
12907;DHT22;6521;50.498;8.474;2023-04-06T11:24:21;15.86;31.15
12907;DHT22;6521;50.498;8.474;2023-04-06T11:26:55;15.59;30.96
12907;DHT22;6521;50.498;8.474;2023-04-06T11:29:27;15.35;32.08
12907;DHT22;6521;50.498;8.474;2023-04-06T11:31:59;15.57;33.60
12907;DHT22;6521;50.498;8.474;2023-04-06T11:34:32;15.56;34.35
12907;DHT22;6521;50.498;8.474;2023-04-06T11:37:12;15.15;30.87
12907;DHT22;6521;50.498;8.474;2023-04-06T11:39:50;15.31;31.92
12907;DHT22;6521;50.498;8.474;2023-04-06T11:42:25;15.32;31.54
12907;DHT22;6521;50.498;8.474;2023-04-06T11:44:57;14.90;32.92
12907;DHT22;6521;50.498;8.474;2023-04-06T11:47:33;14.49;32.44
12907;DHT22;6521;50.498;8.474;2023-04-06T11:50:13;14.87;33.93
12907;DHT22;6521;50.498;8.474;2023-04-06T11:52:44;15.14;33.42
12907;DHT22;6521;50.498;8.474;2023-04-06T11:55:16;15.21;33.09
12907;DHT22;6521;50.498;8.474;2023-04-06T11:57:47;15.17;33.88
12907;DHT22;6521;50.498;8.474;2023-04-06T12:00:18;14.95;33.35
12907;DHT22;6521;50.498;8.474;2023-04-06T12:02:49;14.81;33.57
12907;DHT22;6521;50.498;8.474;2023-04-06T12:05:20;14.59;33.14
12907;DHT22;6521;50.498;8.474;2023-04-06T12:07:51;14.50;33.91
12907;DHT22;6521;50.498;8.474;2023-04-06T12:10:22;14.37;34.88
12907;DHT22;6521;50.498;8.474;2023-04-06T12:12:52;13.98;34.37
12907;DHT22;6521;50.498;8.474;2023-04-06T12:15:23;13.97;34.34
12907;DHT22;6521;50.498;8.474;2023-04-06T12:17:54;14.06;33.57
12907;DHT22;6521;50.498;8.474;2023-04-06T12:20:24;13.91;35.63
12907;DHT22;6521;50.498;8.474;2023-04-06T12:22:55;14.20;34.96
12907;DHT22;6521;50.498;8.474;2023-04-06T12:25:26;14.30;33.98
12907;DHT22;6521;50.498;8.474;2023-04-06T12:27:57;14.26;34.99
12907;DHT22;6521;50.498;8.474;2023-04-06T12:30:28;14.57;34.10
12907;DHT22;6521;50.498;8.474;2023-04-06T12:32:58;14.57;34.69
12907;DHT22;6521;50.498;8.474;2023-04-06T12:35:33;14.59;33.71
12907;DHT22;6521;50.498;8.474;2023-04-06T12:38:04;14.60;34.53
12907;DHT22;6521;50.498;8.474;2023-04-06T12:40:38;14.26;33.90
12907;DHT22;6521;50.498;8.474;2023-04-06T12:43:09;13.88;34.82
12907;DHT22;6521;50.498;8.474;2023-04-06T12:45:40;13.77;35.51
12907;DHT22;6521;50.498;8.474;2023-04-06T12:48:11;13.86;35.77
12907;DHT22;6521;50.498;8.474;2023-04-06T12:50:41;13.88;35.91
12907;DHT22;6521;50.498;8.474;2023-04-06T12:53:12;13.85;35.74
12907;DHT22;6521;50.498;8.474;2023-04-06T12:55:43;13.62;33.24
12907;DHT22;6521;50.498;8.474;2023-04-06T12:58:14;13.44;36.93
12907;DHT22;6521;50.498;8.474;2023-04-06T13:00:47;13.65;35.52
12907;DHT22;6521;50.498;8.474;2023-04-06T13:03:21;13.70;34.80
12907;DHT22;6521;50.498;8.474;2023-04-06T13:05:52;13.68;34.56
12907;DHT22;6521;50.498;8.474;2023-04-06T13:08:23;13.40;34.83
12907;DHT22;6521;50.498;8.474;2023-04-06T13:10:54;13.48;35.37
12907;DHT22;6521;50.498;8.474;2023-04-06T13:13:26;13.57;35.44
12907;DHT22;6521;50.498;8.474;2023-04-06T13:16:02;13.50;35.56
12907;DHT22;6521;50.498;8.474;2023-04-06T13:18:34;13.64;36.95
12907;DHT22;6521;50.498;8.474;2023-04-06T13:21:07;13.89;35.42
12907;DHT22;6521;50.498;8.474;2023-04-06T13:23:39;13.81;36.24
12907;DHT22;6521;50.498;8.474;2023-04-06T13:26:10;13.67;36.26
12907;DHT22;6521;50.498;8.474;2023-04-06T13:28:41;13.61;36.00
12907;DHT22;6521;50.498;8.474;2023-04-06T13:31:12;13.41;36.37
12907;DHT22;6521;50.498;8.474;2023-04-06T13:33:43;13.50;37.55
12907;DHT22;6521;50.498;8.474;2023-04-06T13:36:14;13.77;36.77
12907;DHT22;6521;50.498;8.474;2023-04-06T13:38:45;13.97;38.02
12907;DHT22;6521;50.498;8.474;2023-04-06T13:41:23;14.08;35.51
12907;DHT22;6521;50.498;8.474;2023-04-06T13:43:54;13.70;35.21
12907;DHT22;6521;50.498;8.474;2023-04-06T13:46:25;13.77;35.85
12907;DHT22;6521;50.498;8.474;2023-04-06T13:48:58;13.68;36.57
12907;DHT22;6521;50.498;8.474;2023-04-06T13:51:28;13.85;37.12
12907;DHT22;6521;50.498;8.474;2023-04-06T13:53:59;13.85;36.57
12907;DHT22;6521;50.498;8.474;2023-04-06T13:56:30;13.75;36.77
12907;DHT22;6521;50.498;8.474;2023-04-06T13:59:02;13.51;36.41
12907;DHT22;6521;50.498;8.474;2023-04-06T14:01:33;13.31;36.61
12907;DHT22;6521;50.498;8.474;2023-04-06T14:04:04;13.06;37.41
12907;DHT22;6521;50.498;8.474;2023-04-06T14:06:36;13.03;37.66
12907;DHT22;6521;50.498;8.474;2023-04-06T14:09:07;12.85;38.36
12907;DHT22;6521;50.498;8.474;2023-04-06T14:11:38;12.71;38.51
12907;DHT22;6521;50.498;8.474;2023-04-06T14:14:09;12.72;39.21
12907;DHT22;6521;50.498;8.474;2023-04-06T14:16:40;12.83;40.06
12907;DHT22;6521;50.498;8.474;2023-04-06T14:19:16;12.85;40.03
12907;DHT22;6521;50.498;8.474;2023-04-06T14:21:48;12.92;40.15
12907;DHT22;6521;50.498;8.474;2023-04-06T14:24:20;12.99;39.01
12907;DHT22;6521;50.498;8.474;2023-04-06T14:26:51;12.83;38.64
12907;DHT22;6521;50.498;8.474;2023-04-06T14:29:21;12.69;39.30
12907;DHT22;6521;50.498;8.474;2023-04-06T14:31:52;12.68;39.19
12907;DHT22;6521;50.498;8.474;2023-04-06T14:34:23;12.49;39.01
12907;DHT22;6521;50.498;8.474;2023-04-06T14:36:54;12.40;39.03
12907;DHT22;6521;50.498;8.474;2023-04-06T14:39:25;12.41;40.34
12907;DHT22;6521;50.498;8.474;2023-04-06T14:41:56;12.48;39.72
12907;DHT22;6521;50.498;8.474;2023-04-06T14:44:27;12.61;39.08
12907;DHT22;6521;50.498;8.474;2023-04-06T14:46:57;12.52;38.45
12907;DHT22;6521;50.498;8.474;2023-04-06T14:49:28;12.55;38.82
12907;DHT22;6521;50.498;8.474;2023-04-06T14:51:59;12.56;38.99
12907;DHT22;6521;50.498;8.474;2023-04-06T14:54:30;12.54;39.65
12907;DHT22;6521;50.498;8.474;2023-04-06T14:57:00;12.45;39.49
12907;DHT22;6521;50.498;8.474;2023-04-06T14:59:32;12.38;39.30
12907;DHT22;6521;50.498;8.474;2023-04-06T15:02:03;12.30;39.26
12907;DHT22;6521;50.498;8.474;2023-04-06T15:04:34;12.16;39.49
12907;DHT22;6521;50.498;8.474;2023-04-06T15:07:06;12.17;39.43
12907;DHT22;6521;50.498;8.474;2023-04-06T15:09:37;12.13;39.31
12907;DHT22;6521;50.498;8.474;2023-04-06T15:12:08;12.20;39.72
12907;DHT22;6521;50.498;8.474;2023-04-06T15:14:38;12.25;40.01
12907;DHT22;6521;50.498;8.474;2023-04-06T15:17:09;12.28;39.85
12907;DHT22;6521;50.498;8.474;2023-04-06T15:19:40;12.30;40.18
12907;DHT22;6521;50.498;8.474;2023-04-06T15:22:11;12.21;38.48
12907;DHT22;6521;50.498;8.474;2023-04-06T15:24:42;12.30;38.91
12907;DHT22;6521;50.498;8.474;2023-04-06T15:27:12;12.31;37.19
12907;DHT22;6521;50.498;8.474;2023-04-06T15:29:43;12.27;39.33
12907;DHT22;6521;50.498;8.474;2023-04-06T15:32:14;12.25;39.55
12907;DHT22;6521;50.498;8.474;2023-04-06T15:34:45;12.17;38.63
12907;DHT22;6521;50.498;8.474;2023-04-06T15:37:16;12.01;40.71
12907;DHT22;6521;50.498;8.474;2023-04-06T15:39:47;12.08;42.26
12907;DHT22;6521;50.498;8.474;2023-04-06T15:42:17;11.98;40.25
12907;DHT22;6521;50.498;8.474;2023-04-06T15:44:48;11.93;40.76
12907;DHT22;6521;50.498;8.474;2023-04-06T15:47:19;11.96;40.17
12907;DHT22;6521;50.498;8.474;2023-04-06T15:49:49;11.79;40.01
12907;DHT22;6521;50.498;8.474;2023-04-06T15:52:20;11.69;41.71
12907;DHT22;6521;50.498;8.474;2023-04-06T15:54:52;11.62;41.14
12907;DHT22;6521;50.498;8.474;2023-04-06T15:57:23;11.66;41.60
12907;DHT22;6521;50.498;8.474;2023-04-06T15:59:54;11.65;42.84
12907;DHT22;6521;50.498;8.474;2023-04-06T16:02:25;11.63;40.86
12907;DHT22;6521;50.498;8.474;2023-04-06T16:04:59;11.61;40.88
12907;DHT22;6521;50.498;8.474;2023-04-06T16:07:33;11.52;40.35
12907;DHT22;6521;50.498;8.474;2023-04-06T16:10:05;11.49;41.12
12907;DHT22;6521;50.498;8.474;2023-04-06T16:12:36;11.43;41.97
12907;DHT22;6521;50.498;8.474;2023-04-06T16:15:07;11.39;40.96
12907;DHT22;6521;50.498;8.474;2023-04-06T16:17:40;11.45;42.27
12907;DHT22;6521;50.498;8.474;2023-04-06T16:20:11;11.36;41.90
12907;DHT22;6521;50.498;8.474;2023-04-06T16:22:42;11.28;41.96
12907;DHT22;6521;50.498;8.474;2023-04-06T16:25:13;11.22;42.85
12907;DHT22;6521;50.498;8.474;2023-04-06T16:27:43;11.19;43.76
12907;DHT22;6521;50.498;8.474;2023-04-06T16:30:14;11.25;43.32